LHA9105 LCLK-HECA
Flight info
| Callsign | LHA9105 |
|---|---|
| Flight time | 1h 2m |
| Altitude | 36000 |
| Route | EMEDA DCT LAKTO/N0454F350 J863 PSD V602 CVO |
| Aircraft | A20N/M-SDE1E2FGIJ1RWYZ/S |
Departure
| Time | 2026-05-05 14:31 |
|---|---|
| Airport | Larnaca International Airport (LCLK) |
Arrival
| Time | 2026-05-05 15:33 |
|---|---|
| Airport | Cairo International Airport (HECA) |
| Time | Latitude | Longitude | Altitude | Speed | Heading |
|---|---|---|---|---|---|
| 2026-05-05 13:50 | 34.88233 | 33.62954 | 16 ft | 0 kts | 224° |
| 2026-05-05 14:23 | 34.88230 | 33.62949 | 16 ft | 0 kts | 224° |
| 2026-05-05 14:27 | 34.88227 | 33.62946 | 18 ft | 3 kts | 224° |
| 2026-05-05 14:28 | 34.88180 | 33.62896 | 16 ft | 16 kts | 221° |
| 2026-05-05 14:28 | 34.88056 | 33.62819 | 16 ft | 8 kts | 207° |
| 2026-05-05 14:28 | 34.88019 | 33.62803 | 16 ft | 12 kts | 193° |
| 2026-05-05 14:28 | 34.87905 | 33.62849 | 17 ft | 21 kts | 128° |
| 2026-05-05 14:29 | 34.87836 | 33.62959 | 20 ft | 0 kts | 83° |
| 2026-05-05 14:29 | 34.87847 | 33.62995 | 18 ft | 10 kts | 60° |
| 2026-05-05 14:29 | 34.87873 | 33.62988 | 18 ft | 4 kts | 241° |
| 2026-05-05 14:29 | 34.87854 | 33.62963 | 18 ft | 10 kts | 227° |
| 2026-05-05 14:30 | 34.87851 | 33.62960 | 18 ft | 0 kts | 227° |
| 2026-05-05 14:30 | 34.87849 | 33.62957 | 18 ft | 1 kts | 227° |
| 2026-05-05 14:30 | 34.87810 | 33.62910 | 18 ft | 14 kts | 221° |
| 2026-05-05 14:30 | 34.87609 | 33.62678 | 17 ft | 80 kts | 225° |
| 2026-05-05 14:31 | 34.87038 | 33.61982 | 20 ft | 148 kts | 224° |
| 2026-05-05 14:31 | 34.86176 | 33.61008 | 285 ft | 182 kts | 220° |
| 2026-05-05 14:31 | 34.85132 | 33.60016 | 824 ft | 197 kts | 216° |
| 2026-05-05 14:31 | 34.83987 | 33.59080 | 1406 ft | 196 kts | 217° |
| 2026-05-05 14:32 | 34.82977 | 33.58017 | 1830 ft | 198 kts | 216° |
| 2026-05-05 14:32 | 34.81623 | 33.57554 | 1979 ft | 216 kts | 172° |
| 2026-05-05 14:32 | 34.80167 | 33.58189 | 2131 ft | 233 kts | 152° |
| 2026-05-05 14:32 | 34.78764 | 33.59229 | 2506 ft | 239 kts | 147° |
| 2026-05-05 14:33 | 34.77319 | 33.60392 | 2718 ft | 257 kts | 147° |
| 2026-05-05 14:33 | 34.75800 | 33.61589 | 3172 ft | 262 kts | 148° |
| 2026-05-05 14:33 | 34.74242 | 33.62760 | 3699 ft | 265 kts | 149° |
| 2026-05-05 14:33 | 34.72649 | 33.63904 | 4226 ft | 267 kts | 150° |
| 2026-05-05 14:34 | 34.71032 | 33.65028 | 4741 ft | 269 kts | 151° |
| 2026-05-05 14:34 | 34.69394 | 33.66146 | 5248 ft | 271 kts | 151° |
| 2026-05-05 14:34 | 34.67741 | 33.67260 | 5735 ft | 273 kts | 151° |
| 2026-05-05 14:34 | 34.66075 | 33.68376 | 6231 ft | 275 kts | 151° |
| 2026-05-05 14:35 | 34.64393 | 33.69501 | 6694 ft | 277 kts | 152° |
| 2026-05-05 14:35 | 34.62697 | 33.70632 | 7292 ft | 280 kts | 152° |
| 2026-05-05 14:35 | 34.60985 | 33.71775 | 8104 ft | 282 kts | 151° |
| 2026-05-05 14:35 | 34.59258 | 33.72930 | 8877 ft | 285 kts | 151° |
| 2026-05-05 14:36 | 34.57513 | 33.74098 | 9616 ft | 288 kts | 151° |
| 2026-05-05 14:36 | 34.55742 | 33.75282 | 10266 ft | 297 kts | 151° |
| 2026-05-05 14:36 | 34.53891 | 33.76519 | 10447 ft | 320 kts | 151° |
| 2026-05-05 14:36 | 34.51792 | 33.77651 | 10584 ft | 342 kts | 163° |
| 2026-05-05 14:37 | 34.49410 | 33.78122 | 10984 ft | 352 kts | 179° |
| 2026-05-05 14:37 | 34.46964 | 33.77825 | 11579 ft | 356 kts | 194° |
| 2026-05-05 14:37 | 34.44642 | 33.76762 | 12195 ft | 359 kts | 209° |
| 2026-05-05 14:37 | 34.42592 | 33.75020 | 12808 ft | 362 kts | 219° |
| 2026-05-05 14:38 | 34.40607 | 33.73115 | 13438 ft | 365 kts | 219° |
| 2026-05-05 14:38 | 34.38607 | 33.71198 | 14077 ft | 369 kts | 219° |
| 2026-05-05 14:38 | 34.36590 | 33.69265 | 14707 ft | 372 kts | 218° |
| 2026-05-05 14:38 | 34.34548 | 33.67318 | 15300 ft | 375 kts | 218° |
| 2026-05-05 14:39 | 34.32487 | 33.65359 | 15862 ft | 378 kts | 218° |
| 2026-05-05 14:39 | 34.30408 | 33.63384 | 16411 ft | 381 kts | 218° |
| 2026-05-05 14:39 | 34.28317 | 33.61396 | 16944 ft | 384 kts | 218° |
| 2026-05-05 14:39 | 34.26204 | 33.59390 | 17478 ft | 387 kts | 218° |
| 2026-05-05 14:40 | 34.24078 | 33.57369 | 17990 ft | 390 kts | 218° |
| 2026-05-05 14:40 | 34.21932 | 33.55334 | 18515 ft | 393 kts | 218° |
| 2026-05-05 14:40 | 34.19769 | 33.53284 | 19034 ft | 397 kts | 218° |
| 2026-05-05 14:40 | 34.17591 | 33.51218 | 19571 ft | 400 kts | 218° |
| 2026-05-05 14:41 | 34.15396 | 33.49136 | 20091 ft | 403 kts | 218° |
| 2026-05-05 14:41 | 34.13185 | 33.47041 | 20620 ft | 406 kts | 218° |
| 2026-05-05 14:41 | 34.10954 | 33.44930 | 21113 ft | 409 kts | 218° |
| 2026-05-05 14:41 | 34.08704 | 33.42806 | 21595 ft | 412 kts | 218° |
| 2026-05-05 14:42 | 34.06441 | 33.40667 | 22056 ft | 415 kts | 218° |
| 2026-05-05 14:42 | 34.04163 | 33.38512 | 22509 ft | 418 kts | 218° |
| 2026-05-05 14:42 | 34.01870 | 33.36346 | 22957 ft | 420 kts | 218° |
| 2026-05-05 14:42 | 33.99560 | 33.34162 | 23404 ft | 423 kts | 218° |
| 2026-05-05 14:43 | 33.97238 | 33.31965 | 23833 ft | 426 kts | 218° |
| 2026-05-05 14:43 | 33.94896 | 33.29756 | 24261 ft | 429 kts | 218° |
| 2026-05-05 14:43 | 33.92538 | 33.27541 | 24682 ft | 431 kts | 218° |
| 2026-05-05 14:43 | 33.90163 | 33.25311 | 25094 ft | 434 kts | 218° |
| 2026-05-05 14:44 | 33.87776 | 33.23071 | 25501 ft | 437 kts | 218° |
| 2026-05-05 14:44 | 33.85372 | 33.20816 | 25894 ft | 440 kts | 218° |
| 2026-05-05 14:44 | 33.82954 | 33.18546 | 26292 ft | 442 kts | 218° |
| 2026-05-05 14:44 | 33.80554 | 33.16296 | 26661 ft | 445 kts | 218° |
| 2026-05-05 14:45 | 33.78109 | 33.14003 | 27052 ft | 447 kts | 218° |
| 2026-05-05 14:45 | 33.75661 | 33.11709 | 27561 ft | 446 kts | 218° |
| 2026-05-05 14:45 | 33.73217 | 33.09424 | 28078 ft | 444 kts | 218° |
| 2026-05-05 14:45 | 33.70779 | 33.07151 | 28583 ft | 443 kts | 218° |
| 2026-05-05 14:46 | 33.68349 | 33.04885 | 29072 ft | 442 kts | 218° |
| 2026-05-05 14:46 | 33.65921 | 33.02620 | 29539 ft | 441 kts | 218° |
| 2026-05-05 14:46 | 33.63502 | 33.00360 | 30023 ft | 441 kts | 218° |
| 2026-05-05 14:46 | 33.61084 | 32.98103 | 30484 ft | 440 kts | 218° |
| 2026-05-05 14:47 | 33.58672 | 32.95853 | 30936 ft | 439 kts | 218° |
| 2026-05-05 14:47 | 33.56263 | 32.93614 | 31388 ft | 438 kts | 218° |
| 2026-05-05 14:47 | 33.53855 | 32.91382 | 31825 ft | 437 kts | 218° |
| 2026-05-05 14:47 | 33.51455 | 32.89153 | 32259 ft | 436 kts | 218° |
| 2026-05-05 14:48 | 33.49060 | 32.86922 | 32686 ft | 436 kts | 218° |
| 2026-05-05 14:48 | 33.46667 | 32.84693 | 32948 ft | 436 kts | 218° |
| 2026-05-05 14:48 | 33.41876 | 32.80253 | 33010 ft | 435 kts | 218° |
| 2026-05-05 14:49 | 33.37088 | 32.75823 | 33009 ft | 435 kts | 218° |
| 2026-05-05 14:49 | 33.32308 | 32.71402 | 33009 ft | 435 kts | 218° |
| 2026-05-05 14:50 | 33.27549 | 32.67018 | 33010 ft | 435 kts | 218° |
| 2026-05-05 14:50 | 33.22757 | 32.62604 | 33008 ft | 435 kts | 218° |
| 2026-05-05 14:51 | 33.17969 | 32.58194 | 33009 ft | 435 kts | 218° |
| 2026-05-05 14:51 | 33.13178 | 32.53783 | 33009 ft | 435 kts | 218° |
| 2026-05-05 14:52 | 33.08387 | 32.49384 | 33009 ft | 435 kts | 218° |
| 2026-05-05 14:52 | 33.03587 | 32.44993 | 33010 ft | 435 kts | 218° |
| 2026-05-05 14:53 | 32.98795 | 32.40599 | 33009 ft | 435 kts | 218° |
| 2026-05-05 14:53 | 32.93996 | 32.36204 | 33009 ft | 435 kts | 218° |
| 2026-05-05 14:54 | 32.90009 | 32.32567 | 33009 ft | 435 kts | 218° |
| 2026-05-05 14:54 | 32.85203 | 32.28193 | 33010 ft | 435 kts | 218° |
| 2026-05-05 14:55 | 32.80399 | 32.23817 | 33008 ft | 435 kts | 218° |
| 2026-05-05 14:55 | 32.75591 | 32.19446 | 33010 ft | 435 kts | 217° |
| 2026-05-05 14:56 | 32.70793 | 32.15101 | 33007 ft | 427 kts | 217° |
| 2026-05-05 14:56 | 32.67243 | 32.12003 | 33009 ft | 411 kts | 211° |
| 2026-05-05 14:57 | 32.62011 | 32.09461 | 33009 ft | 407 kts | 192° |
| 2026-05-05 14:57 | 32.56381 | 32.09130 | 33010 ft | 407 kts | 174° |
| 2026-05-05 14:58 | 32.50740 | 32.09796 | 33009 ft | 407 kts | 175° |
| 2026-05-05 14:58 | 32.45095 | 32.10432 | 33010 ft | 408 kts | 175° |
| 2026-05-05 14:59 | 32.39453 | 32.11078 | 33009 ft | 408 kts | 174° |
| 2026-05-05 14:59 | 32.33842 | 32.11731 | 33009 ft | 407 kts | 174° |
| 2026-05-05 15:00 | 32.29116 | 32.12278 | 33010 ft | 408 kts | 174° |
| 2026-05-05 15:00 | 32.22556 | 32.13027 | 33009 ft | 407 kts | 175° |
| 2026-05-05 15:01 | 32.16918 | 32.13676 | 33010 ft | 407 kts | 174° |
| 2026-05-05 15:01 | 32.11271 | 32.14328 | 33009 ft | 407 kts | 174° |
| 2026-05-05 15:02 | 32.05627 | 32.14983 | 33009 ft | 408 kts | 174° |
| 2026-05-05 15:02 | 31.99984 | 32.15628 | 33008 ft | 408 kts | 175° |
| 2026-05-05 15:03 | 31.94338 | 32.16269 | 33009 ft | 407 kts | 175° |
| 2026-05-05 15:03 | 31.90360 | 32.16722 | 33009 ft | 407 kts | 175° |
| 2026-05-05 15:04 | 31.85393 | 32.17289 | 33009 ft | 407 kts | 174° |
| 2026-05-05 15:04 | 31.79748 | 32.17931 | 33010 ft | 407 kts | 175° |
| 2026-05-05 15:05 | 31.71282 | 32.18879 | 33010 ft | 407 kts | 175° |
| 2026-05-05 15:06 | 31.65636 | 32.19518 | 33010 ft | 407 kts | 174° |
| 2026-05-05 15:06 | 31.60029 | 32.20160 | 33009 ft | 408 kts | 175° |
| 2026-05-05 15:07 | 31.54389 | 32.20798 | 33009 ft | 408 kts | 175° |
| 2026-05-05 15:07 | 31.48742 | 32.21440 | 33009 ft | 408 kts | 174° |
| 2026-05-05 15:08 | 31.43098 | 32.22076 | 33009 ft | 408 kts | 175° |
| 2026-05-05 15:08 | 31.37447 | 32.22702 | 33011 ft | 410 kts | 175° |
| 2026-05-05 15:08 | 31.34570 | 32.23022 | 33011 ft | 421 kts | 175° |
| 2026-05-05 15:09 | 31.31625 | 32.23351 | 33012 ft | 431 kts | 175° |
| 2026-05-05 15:09 | 31.25602 | 32.23982 | 33010 ft | 437 kts | 176° |
| 2026-05-05 15:10 | 31.19487 | 32.24295 | 32773 ft | 447 kts | 179° |
| 2026-05-05 15:10 | 31.16355 | 32.24385 | 32521 ft | 452 kts | 179° |
| 2026-05-05 15:10 | 31.13209 | 32.24473 | 32271 ft | 454 kts | 179° |
| 2026-05-05 15:10 | 31.10045 | 32.24579 | 32020 ft | 455 kts | 178° |
| 2026-05-05 15:11 | 31.06924 | 32.24703 | 31774 ft | 455 kts | 178° |
| 2026-05-05 15:11 | 31.03753 | 32.24848 | 31528 ft | 456 kts | 178° |
| 2026-05-05 15:11 | 31.00581 | 32.25000 | 31273 ft | 457 kts | 178° |
| 2026-05-05 15:11 | 30.97407 | 32.25154 | 31023 ft | 457 kts | 178° |
| 2026-05-05 15:12 | 30.94230 | 32.25305 | 30301 ft | 460 kts | 178° |
| 2026-05-05 15:12 | 30.90995 | 32.25455 | 29225 ft | 468 kts | 178° |
| 2026-05-05 15:12 | 30.87748 | 32.25601 | 28630 ft | 464 kts | 178° |
| 2026-05-05 15:12 | 30.84543 | 32.25745 | 27984 ft | 461 kts | 178° |
| 2026-05-05 15:13 | 30.81348 | 32.25885 | 27334 ft | 457 kts | 178° |
| 2026-05-05 15:13 | 30.78183 | 32.26023 | 26684 ft | 453 kts | 178° |
| 2026-05-05 15:13 | 30.75044 | 32.26162 | 26037 ft | 449 kts | 178° |
| 2026-05-05 15:13 | 30.71937 | 32.26301 | 25413 ft | 445 kts | 178° |
| 2026-05-05 15:14 | 30.68854 | 32.26437 | 24788 ft | 441 kts | 178° |
| 2026-05-05 15:14 | 30.65800 | 32.26406 | 24161 ft | 437 kts | 187° |
| 2026-05-05 15:14 | 30.62852 | 32.25674 | 23551 ft | 432 kts | 199° |
| 2026-05-05 15:14 | 30.60137 | 32.24232 | 22943 ft | 427 kts | 212° |
| 2026-05-05 15:15 | 30.57785 | 32.22168 | 22358 ft | 422 kts | 224° |
| 2026-05-05 15:15 | 30.55880 | 32.19605 | 21784 ft | 417 kts | 236° |
| 2026-05-05 15:15 | 30.54284 | 32.16822 | 21243 ft | 412 kts | 237° |
| 2026-05-05 15:15 | 30.52708 | 32.14064 | 20702 ft | 408 kts | 237° |
| 2026-05-05 15:16 | 30.51147 | 32.11336 | 20197 ft | 404 kts | 237° |
| 2026-05-05 15:16 | 30.49599 | 32.08637 | 19691 ft | 400 kts | 236° |
| 2026-05-05 15:16 | 30.48064 | 32.05966 | 19194 ft | 397 kts | 236° |
| 2026-05-05 15:16 | 30.46539 | 32.03317 | 18692 ft | 393 kts | 236° |
| 2026-05-05 15:17 | 30.45030 | 32.00694 | 18179 ft | 390 kts | 236° |
| 2026-05-05 15:17 | 30.43534 | 31.98091 | 17676 ft | 386 kts | 236° |
| 2026-05-05 15:17 | 30.42053 | 31.95511 | 17160 ft | 383 kts | 236° |
| 2026-05-05 15:17 | 30.40600 | 31.92981 | 16637 ft | 380 kts | 236° |
| 2026-05-05 15:18 | 30.39138 | 31.90441 | 16101 ft | 378 kts | 236° |
| 2026-05-05 15:18 | 30.37685 | 31.87922 | 15548 ft | 375 kts | 236° |
| 2026-05-05 15:18 | 30.36242 | 31.85423 | 15013 ft | 372 kts | 236° |
| 2026-05-05 15:18 | 30.34812 | 31.82943 | 14468 ft | 369 kts | 236° |
| 2026-05-05 15:19 | 30.33392 | 31.80481 | 13922 ft | 367 kts | 236° |
| 2026-05-05 15:19 | 30.31980 | 31.78032 | 13377 ft | 364 kts | 236° |
| 2026-05-05 15:19 | 30.30579 | 31.75604 | 12837 ft | 362 kts | 236° |
| 2026-05-05 15:19 | 30.29186 | 31.73195 | 12288 ft | 359 kts | 236° |
| 2026-05-05 15:20 | 30.27800 | 31.70800 | 11746 ft | 357 kts | 236° |
| 2026-05-05 15:20 | 30.26425 | 31.68429 | 11200 ft | 354 kts | 236° |
| 2026-05-05 15:20 | 30.25059 | 31.66071 | 10710 ft | 350 kts | 236° |
| 2026-05-05 15:20 | 30.23731 | 31.63779 | 10566 ft | 336 kts | 236° |
| 2026-05-05 15:21 | 30.22453 | 31.61577 | 10443 ft | 324 kts | 236° |
| 2026-05-05 15:21 | 30.21220 | 31.59453 | 10316 ft | 313 kts | 236° |
| 2026-05-05 15:21 | 30.20025 | 31.57397 | 10188 ft | 303 kts | 236° |
| 2026-05-05 15:21 | 30.18870 | 31.55409 | 10046 ft | 294 kts | 236° |
| 2026-05-05 15:22 | 30.17741 | 31.53467 | 9859 ft | 288 kts | 236° |
| 2026-05-05 15:22 | 30.16616 | 31.51531 | 9428 ft | 292 kts | 236° |
| 2026-05-05 15:22 | 30.15494 | 31.49599 | 9166 ft | 288 kts | 236° |
| 2026-05-05 15:22 | 30.14379 | 31.47680 | 8814 ft | 288 kts | 236° |
| 2026-05-05 15:23 | 30.13265 | 31.45765 | 8488 ft | 286 kts | 236° |
| 2026-05-05 15:23 | 30.12158 | 31.43863 | 8163 ft | 285 kts | 236° |
| 2026-05-05 15:23 | 30.11053 | 31.41967 | 7836 ft | 284 kts | 236° |
| 2026-05-05 15:23 | 30.09967 | 31.40106 | 7507 ft | 282 kts | 236° |
| 2026-05-05 15:24 | 30.08812 | 31.38279 | 7197 ft | 281 kts | 229° |
| 2026-05-05 15:24 | 30.07531 | 31.36584 | 6872 ft | 280 kts | 229° |
| 2026-05-05 15:24 | 30.06256 | 31.34890 | 6554 ft | 279 kts | 229° |
| 2026-05-05 15:24 | 30.04989 | 31.33205 | 6199 ft | 278 kts | 229° |
| 2026-05-05 15:25 | 30.03687 | 31.31471 | 5441 ft | 293 kts | 229° |
| 2026-05-05 15:25 | 30.02320 | 31.29652 | 4635 ft | 307 kts | 229° |
| 2026-05-05 15:25 | 30.00906 | 31.27771 | 4116 ft | 310 kts | 229° |
| 2026-05-05 15:25 | 29.99513 | 31.25922 | 3944 ft | 300 kts | 229° |
| 2026-05-05 15:26 | 29.98172 | 31.24140 | 3811 ft | 289 kts | 229° |
| 2026-05-05 15:26 | 29.96979 | 31.22329 | 3658 ft | 279 kts | 245° |
| 2026-05-05 15:26 | 29.96681 | 31.20195 | 3525 ft | 268 kts | 280° |
| 2026-05-05 15:26 | 29.97473 | 31.18329 | 3399 ft | 259 kts | 316° |
| 2026-05-05 15:27 | 29.99016 | 31.17409 | 3297 ft | 249 kts | 353° |
| 2026-05-05 15:27 | 30.00692 | 31.17616 | 3183 ft | 240 kts | 22° |
| 2026-05-05 15:27 | 30.01996 | 31.18705 | 3128 ft | 229 kts | 53° |
| 2026-05-05 15:27 | 30.02622 | 31.20359 | 3082 ft | 227 kts | 83° |
| 2026-05-05 15:28 | 30.02450 | 31.22152 | 3027 ft | 227 kts | 113° |
| 2026-05-05 15:28 | 30.01537 | 31.23610 | 2977 ft | 226 kts | 143° |
| 2026-05-05 15:28 | 30.00133 | 31.24363 | 2924 ft | 224 kts | 172° |
| 2026-05-05 15:28 | 29.98580 | 31.24348 | 2879 ft | 224 kts | 183° |
| 2026-05-05 15:29 | 29.97080 | 31.24726 | 2828 ft | 224 kts | 146° |
| 2026-05-05 15:29 | 29.96169 | 31.26136 | 2780 ft | 224 kts | 103° |
| 2026-05-05 15:29 | 29.96306 | 31.27886 | 2739 ft | 224 kts | 61° |
| 2026-05-05 15:29 | 29.97415 | 31.29082 | 2628 ft | 222 kts | 21° |
| 2026-05-05 15:30 | 29.98836 | 31.29628 | 2535 ft | 213 kts | 18° |
| 2026-05-05 15:30 | 30.00182 | 31.30158 | 2555 ft | 194 kts | 18° |
| 2026-05-05 15:30 | 30.01400 | 31.30640 | 2521 ft | 178 kts | 18° |
| 2026-05-05 15:30 | 30.02536 | 31.31093 | 2392 ft | 168 kts | 20° |
| 2026-05-05 15:31 | 30.03514 | 31.31719 | 2256 ft | 157 kts | 36° |
| 2026-05-05 15:31 | 30.04325 | 31.32523 | 2055 ft | 152 kts | 43° |
| 2026-05-05 15:31 | 30.05060 | 31.33385 | 1860 ft | 150 kts | 46° |
| 2026-05-05 15:31 | 30.05763 | 31.34270 | 1671 ft | 149 kts | 47° |
| 2026-05-05 15:32 | 30.06450 | 31.35162 | 1460 ft | 148 kts | 47° |
| 2026-05-05 15:32 | 30.07129 | 31.36053 | 1272 ft | 148 kts | 48° |
| 2026-05-05 15:32 | 30.07805 | 31.36949 | 1076 ft | 147 kts | 48° |
| 2026-05-05 15:32 | 30.08477 | 31.37839 | 881 ft | 147 kts | 48° |
| 2026-05-05 15:33 | 30.09146 | 31.38728 | 683 ft | 146 kts | 48° |
| 2026-05-05 15:33 | 30.09806 | 31.39606 | 480 ft | 140 kts | 48° |
| 2026-05-05 15:33 | 30.10376 | 31.40357 | 388 ft | 90 kts | 49° |
| 2026-05-05 15:33 | 30.10581 | 31.40643 | 387 ft | 2 kts | 51° |
| 2026-05-05 15:34 | 30.10591 | 31.40658 | 387 ft | 5 kts | 51° |
| 2026-05-05 15:34 | 30.10631 | 31.40716 | 387 ft | 13 kts | 52° |
| 2026-05-05 15:34 | 30.10731 | 31.40760 | 383 ft | 13 kts | 348° |
| 2026-05-05 15:34 | 30.10806 | 31.40689 | 377 ft | 20 kts | 312° |
| 2026-05-05 15:35 | 30.10944 | 31.40714 | 370 ft | 25 kts | 56° |
| 2026-05-05 15:35 | 30.11025 | 31.40826 | 370 ft | 18 kts | 30° |
| 2026-05-05 15:35 | 30.11079 | 31.40782 | 365 ft | 13 kts | 284° |
| 2026-05-05 15:35 | 30.11038 | 31.40685 | 364 ft | 15 kts | 227° |
| 2026-05-05 15:36 | 30.11055 | 31.40603 | 360 ft | 13 kts | 327° |
| 2026-05-05 15:36 | 30.11149 | 31.40531 | 355 ft | 19 kts | 324° |
| 2026-05-05 15:36 | 30.11212 | 31.40466 | 352 ft | 14 kts | 302° |
| 2026-05-05 15:36 | 30.11208 | 31.40373 | 351 ft | 3 kts | 224° |
| 2026-05-05 15:37 | 30.11198 | 31.40363 | 348 ft | 0 kts | 223° |
| 2026-05-05 15:37 | 30.11191 | 31.40356 | 350 ft | 0 kts | 222° |